HST,Max TemperatureF,Mean TemperatureF,Min TemperatureF,Max Dew PointF,MeanDew PointF,Min DewpointF,Max Humidity, Mean Humidity, Min Humidity, Max Sea Level PressureIn, Mean Sea Level PressureIn, Min Sea Level PressureIn, Max VisibilityMiles, Mean VisibilityMiles, Min VisibilityMiles, Max Wind SpeedMPH, Mean Wind SpeedMPH, Max Gust SpeedMPH,PrecipitationIn, CloudCover, Events, WindDirDegrees
2010-10-1,82,78,75,70,67,65,74,69,60,30.05,30.00,29.95,10,10,10,10,6,,0.00,7,,154
2010-10-2,81,77,73,72,70,65,90,78,62,30.06,30.03,29.99,10,10,10,10,5,,0.00,5,Rain,154
2010-10-3,84,77,70,70,66,58,81,67,54,30.02,29.99,29.93,10,10,10,15,7,,0.00,3,Rain,155
2010-10-4,84,78,73,69,67,64,74,66,56,30.03,29.98,29.94,10,10,10,12,7,,0.00,2,,158
2010-10-5,84,78,73,69,66,61,73,63,48,30.05,30.00,29.97,10,10,10,13,6,,0.00,0,,135
2010-10-6,84,80,75,70,65,57,71,61,46,30.02,29.98,29.93,10,10,10,15,10,20,0.00,4,Rain,212
2010-10-7,82,78,75,69,67,66,78,67,60,29.99,29.95,29.90,10,10,10,12,5,,0.00,5,Rain,239
2010-10-8,84,78,72,68,65,60,71,62,49,30.04,29.96,29.92,10,10,10,13,6,,0.00,2,,254
2010-10-9,82,76,71,67,64,57,78,68,54,30.09,30.03,29.98,10,10,10,10,6,,0.00,1,,169
2010-10-10,84,74,63,70,64,58,100,79,45,30.08,30.03,29.98,10,10,10,29,8,36,0.00,2,,123
2010-10-11,84,74,63,68,65,62,100,78,55,30.03,29.98,29.91,10,10,10,12,7,,0.00,4,,142
2010-10-12,82,72,61,68,64,61,100,70,51,30.01,29.97,29.92,10,10,10,10,5,,0.00,2,,147
2010-10-13,84,78,72,68,64,57,71,60,47,30.03,29.99,29.94,10,10,10,16,8,,0.00,2,,204
2010-10-14,84,78,73,67,63,58,68,57,49,30.07,30.02,29.97,10,10,10,10,4,,0.00,3,,228
2010-10-15,84,78,73,68,64,59,67,59,47,30.06,30.02,29.98,10,10,10,13,8,,0.00,2,,165
2010-10-16,84,78,73,66,63,59,73,58,47,30.06,30.02,29.97,10,10,10,13,7,,0.00,3,,160
2010-10-17,84,78,73,68,65,61,73,62,54,30.08,30.03,29.98,10,10,10,15,7,,0.02,2,,152
2010-10-18,84,78,72,69,65,59,72,64,56,30.07,30.03,29.98,10,10,10,13,6,,0.00,3,,218
2010-10-19,84,80,75,70,68,64,76,68,59,30.04,30.00,29.95,10,10,10,20,7,,0.00,2,,158
2010-10-20,86,80,75,71,67,63,74,64,51,30.06,30.01,29.94,10,10,10,13,5,,0.00,3,,223
2010-10-21,86,82,77,72,70,65,82,69,57,30.11,30.06,30.01,10,10,10,14,7,,0.00,3,,206
2010-10-22,84,80,75,72,70,67,83,73,60,30.10,30.06,30.00,10,10,6,14,6,,0.19,4,Rain,307
2010-10-23,84,78,73,71,68,60,82,70,56,30.08,30.05,29.99,10,10,10,12,4,,0.00,2,,200
2010-10-24,84,78,73,66,64,62,76,61,49,30.09,30.06,30.03,10,10,10,9,4,,0.00,2,,164
2010-10-25,82,78,75,67,65,61,69,63,54,30.06,30.02,29.97,10,10,10,10,5,,0.00,1,,155
2010-10-26,82,78,73,69,66,63,71,64,56,30.04,29.99,29.93,10,10,10,18,6,28,0.00,3,,161
2010-10-27,82,78,75,70,68,64,76,68,63,30.03,29.99,29.96,10,10,10,13,7,,0.00,3,,157
2010-10-28,84,80,75,71,68,63,83,71,57,30.08,30.03,29.99,10,10,9,15,4,,0.01,6,Rain,143
2010-10-29,84,78,73,69,66,62,82,64,54,30.08,30.04,29.99,10,10,10,14,6,,0.00,4,,195
2010-10-30,84,78,73,69,65,62,72,64,56,30.03,29.99,29.94,10,10,10,12,6,,0.00,4,Rain,99
2010-10-31,84,78,73,70,66,62,74,64,54,30.04,29.99,29.94,10,10,10,12,5,,0.00,3,,224